Time;durP1;ratioP1;P1;durP2;ratioP2;P2;SDS_P1;SDS_P2;PMS_P1;PMS_P2;Temp;Humidity;BMP_temperature;BMP_pressure;BME280_temperature;BME280_humidity;BME280_pressure;Samples;Min_cycle;Max_cycle;Signal;HPM_P1;HPM_P2
2022/06/30 00:02:11;;;;;;;2.25;2.05;;;26.70;99.90;;;;;;4975491;28;20366;-71
2022/06/30 00:04:36;;;;;;;2.45;1.98;;;26.60;99.90;;;;;;4973970;28;20469;-71
2022/06/30 00:07:02;;;;;;;2.10;1.90;;;26.60;99.90;;;;;;4975292;28;20027;-71
2022/06/30 00:09:28;;;;;;;2.80;2.60;;;26.60;99.90;;;;;;4990451;28;20031;-71
2022/06/30 00:11:54;;;;;;;2.50;2.30;;;26.60;99.80;;;;;;4990045;28;20023;-71
2022/06/30 00:14:19;;;;;;;2.70;2.50;;;26.60;99.80;;;;;;4975183;28;20539;-72
2022/06/30 00:16:45;;;;;;;2.50;2.30;;;26.60;99.70;;;;;;4975335;28;20026;-71
2022/06/30 00:19:11;;;;;;;3.08;2.80;;;26.60;99.60;;;;;;4975251;28;20046;-71
2022/06/30 00:21:37;;;;;;;2.72;2.53;;;26.60;99.90;;;;;;4974831;28;20478;-71
2022/06/30 00:24:03;;;;;;;3.28;2.55;;;26.50;99.90;;;;;;4975097;28;20045;-71
2022/06/30 00:26:29;;;;;;;2.65;2.28;;;26.40;99.90;;;;;;4975064;28;20098;-71
2022/06/30 00:28:55;;;;;;;2.30;2.20;;;26.40;99.90;;;;;;4975054;28;20109;-71
2022/06/30 00:31:20;;;;;;;3.05;2.30;;;26.40;99.90;;;;;;4974875;28;20054;-71
2022/06/30 00:33:46;;;;;;;2.20;2.00;;;26.30;99.90;;;;;;4974878;28;20031;-71
2022/06/30 00:36:12;;;;;;;2.28;2.03;;;26.30;99.90;;;;;;4974922;28;20023;-71
2022/06/30 00:38:40;;;;;;;2.30;2.20;;;26.20;99.90;;;;;;4974777;28;20027;-71
2022/06/30 00:41:07;;;;;;;3.33;2.65;;;26.20;99.90;;;;;;4975225;28;20022;-71
2022/06/30 00:43:42;;;;;;;2.50;2.30;;;26.10;99.90;;;;;;4974720;28;20469;-71
2022/06/30 00:46:07;;;;;;;2.13;2.03;;;26.00;99.90;;;;;;4974721;28;20072;-71
2022/06/30 00:48:34;;;;;;;2.20;2.05;;;26.00;99.90;;;;;;4989511;28;20505;-71
2022/06/30 00:51:00;;;;;;;2.88;2.60;;;26.00;99.90;;;;;;4974723;28;20087;-71
2022/06/30 00:53:26;;;;;;;2.83;2.53;;;26.00;99.90;;;;;;4974570;28;20031;-71
2022/06/30 00:55:55;;;;;;;2.55;2.25;;;26.00;99.90;;;;;;4974616;28;20098;-71
2022/06/30 00:58:21;;;;;;;2.30;2.20;;;26.10;99.90;;;;;;4974620;28;20450;-71
2022/06/30 01:00:49;;;;;;;2.38;2.17;;;26.00;99.90;;;;;;4974177;28;20050;-71
2022/06/30 01:03:16;;;;;;;2.33;2.13;;;26.10;99.90;;;;;;4973099;28;20030;-71
2022/06/30 01:05:42;;;;;;;2.20;2.00;;;26.10;99.90;;;;;;4973646;28;20385;-71
2022/06/30 01:08:10;;;;;;;2.35;2.25;;;26.10;99.90;;;;;;4989413;28;20038;-71
2022/06/30 01:13:21;;;;;;;1.80;1.70;;;26.20;99.90;;;;;;4974247;28;20135;-71
2022/06/30 01:15:46;;;;;;;2.85;2.40;;;26.20;99.90;;;;;;4973216;28;20109;-71
2022/06/30 01:18:12;;;;;;;2.45;2.20;;;26.20;99.90;;;;;;4974205;28;20492;-72
2022/06/30 01:20:38;;;;;;;2.30;2.20;;;26.10;99.90;;;;;;4989200;28;20170;-71
2022/06/30 01:23:04;;;;;;;2.33;2.22;;;26.10;99.90;;;;;;4974240;28;20095;-71
2022/06/30 01:25:30;;;;;;;2.42;2.22;;;26.00;99.90;;;;;;4974429;28;20015;-71
2022/06/30 01:27:56;;;;;;;2.40;2.30;;;26.00;99.90;;;;;;4973047;28;20370;-71
2022/06/30 01:30:23;;;;;;;2.65;2.45;;;25.90;99.90;;;;;;4973060;28;20033;-71
2022/06/30 01:32:50;;;;;;;2.42;2.22;;;25.90;99.90;;;;;;4989365;28;20038;-71
2022/06/30 01:35:16;;;;;;;3.30;3.00;;;25.90;99.90;;;;;;4974273;28;20026;-71
2022/06/30 01:37:55;;;;;;;3.40;3.10;;;25.70;99.90;;;;;;4974196;28;20027;-71
2022/06/30 01:40:22;;;;;;;3.42;2.92;;;25.70;99.90;;;;;;4974229;28;20409;-71
2022/06/30 01:42:48;;;;;;;3.03;2.50;;;25.60;99.90;;;;;;4972881;28;20123;-71
2022/06/30 01:45:15;;;;;;;2.63;2.42;;;25.70;99.90;;;;;;4974204;28;20493;-71
2022/06/30 01:47:41;;;;;;;2.80;2.60;;;25.70;99.90;;;;;;4974079;28;20051;-71
2022/06/30 01:50:15;;;;;;;2.97;2.78;;;25.70;99.90;;;;;;4974027;28;20441;-71
2022/06/30 01:52:42;;;;;;;2.60;2.40;;;25.60;99.90;;;;;;4974187;28;20019;-71
2022/06/30 01:55:09;;;;;;;3.60;2.40;;;25.60;99.90;;;;;;4972891;28;20027;-71
2022/06/30 01:57:36;;;;;;;2.00;1.90;;;25.60;99.90;;;;;;4973989;28;20023;-71
2022/06/30 02:00:04;;;;;;;2.90;2.70;;;25.60;99.90;;;;;;4973897;28;20023;-72
2022/06/30 02:02:29;;;;;;;4.45;3.72;;;25.60;99.90;;;;;;4973990;28;20029;-71
2022/06/30 02:04:55;;;;;;;3.70;3.40;;;25.40;99.90;;;;;;4973809;28;20031;-71
2022/06/30 02:07:23;;;;;;;4.40;3.20;;;25.20;99.90;;;;;;4973992;28;20023;-71
2022/06/30 02:09:52;;;;;;;3.45;2.67;;;25.10;99.90;;;;;;4974014;28;20389;-71
2022/06/30 02:15:04;;;;;;;2.40;2.30;;;25.20;99.90;;;;;;4977582;28;20034;-71
2022/06/30 02:17:29;;;;;;;2.22;2.10;;;25.20;99.90;;;;;;4977255;28;20469;-71
2022/06/30 02:19:55;;;;;;;2.35;2.20;;;25.20;99.90;;;;;;4977384;28;20023;-71
2022/06/30 02:22:21;;;;;;;2.95;2.50;;;25.20;99.90;;;;;;4977285;28;20019;-71
2022/06/30 02:24:47;;;;;;;2.65;2.45;;;25.20;99.90;;;;;;4977152;28;20027;-71
2022/06/30 02:27:13;;;;;;;2.20;2.10;;;25.20;99.90;;;;;;4977369;28;20019;-71
2022/06/30 02:29:39;;;;;;;3.22;1.98;;;25.20;99.90;;;;;;4975843;28;20033;-71
2022/06/30 02:32:05;;;;;;;2.40;2.20;;;25.20;99.90;;;;;;4977184;28;20015;-71
2022/06/30 02:34:31;;;;;;;2.38;2.17;;;25.10;99.90;;;;;;4977082;28;20073;-71
2022/06/30 02:36:57;;;;;;;2.83;2.63;;;25.10;99.90;;;;;;4977078;28;20026;-71
2022/06/30 02:39:22;;;;;;;3.25;2.50;;;25.10;99.90;;;;;;4977082;28;20027;-71
2022/06/30 02:41:48;;;;;;;2.67;2.33;;;24.90;99.90;;;;;;4976868;28;20019;-71
2022/06/30 02:44:14;;;;;;;3.00;2.70;;;24.90;99.90;;;;;;4976796;28;20035;-71
2022/06/30 02:46:39;;;;;;;2.60;2.40;;;24.90;99.90;;;;;;4976862;28;20042;-71
2022/06/30 02:49:05;;;;;;;2.38;2.17;;;24.80;99.90;;;;;;4976822;28;20074;-71
2022/06/30 02:51:31;;;;;;;4.25;2.60;;;24.80;99.90;;;;;;4976855;28;20019;-71
2022/06/30 02:53:57;;;;;;;2.30;2.10;;;24.80;99.90;;;;;;4976883;28;20516;-71
2022/06/30 02:56:23;;;;;;;2.30;2.10;;;24.80;99.90;;;;;;4976685;28;20086;-71
2022/06/30 02:58:49;;;;;;;2.80;2.50;;;24.70;99.90;;;;;;4976542;28;20031;-71
2022/06/30 03:01:15;;;;;;;1.88;1.77;;;24.70;99.90;;;;;;4976715;28;20027;-71
2022/06/30 03:03:41;;;;;;;2.92;2.45;;;24.70;99.90;;;;;;4976568;28;20117;-71
2022/06/30 03:06:06;;;;;;;1.88;1.77;;;24.70;99.90;;;;;;4976547;28;20106;-71
2022/06/30 03:08:33;;;;;;;2.30;1.95;;;24.80;99.90;;;;;;4976560;28;20023;-71
2022/06/30 03:10:58;;;;;;;2.58;2.03;;;24.80;99.90;;;;;;4976584;28;20031;-71
2022/06/30 03:13:26;;;;;;;3.20;2.90;;;24.80;99.90;;;;;;4974743;28;20053;-71
2022/06/30 03:15:51;;;;;;;2.88;2.28;;;24.70;99.90;;;;;;4975123;28;20023;-71
2022/06/30 03:18:17;;;;;;;2.40;2.20;;;24.70;99.90;;;;;;4976389;28;20019;-71
2022/06/30 03:20:43;;;;;;;2.65;2.45;;;24.70;99.90;;;;;;4991237;28;20073;-71
2022/06/30 03:23:09;;;;;;;3.67;3.33;;;24.70;99.90;;;;;;4976118;28;20022;-71
2022/06/30 03:25:34;;;;;;;2.80;2.60;;;24.60;99.90;;;;;;4976014;28;20023;-71
2022/06/30 03:28:02;;;;;;;3.13;2.92;;;24.50;99.90;;;;;;4975883;28;20058;-71
2022/06/30 03:30:28;;;;;;;3.75;3.45;;;24.50;99.90;;;;;;4976203;28;20054;-71
2022/06/30 03:32:53;;;;;;;2.97;2.78;;;24.40;99.90;;;;;;4976143;28;20023;-71
2022/06/30 03:35:19;;;;;;;5.00;3.08;;;24.40;99.90;;;;;;4975863;28;20030;-71
2022/06/30 03:37:46;;;;;;;5.18;4.68;;;24.40;99.90;;;;;;4976064;28;20019;-71
2022/06/30 03:40:12;;;;;;;5.70;5.05;;;24.40;99.90;;;;;;4975890;28;20030;-71
2022/06/30 03:42:38;;;;;;;4.40;3.92;;;24.30;99.90;;;;;;4975650;28;20019;-71
2022/06/30 03:45:04;;;;;;;4.35;3.95;;;24.20;99.90;;;;;;4990662;28;20111;-71
2022/06/30 03:47:30;;;;;;;4.18;3.83;;;24.30;99.90;;;;;;4975755;28;20028;-71
2022/06/30 03:49:56;;;;;;;4.00;3.60;;;24.40;99.90;;;;;;4975683;28;20031;-71
2022/06/30 03:52:21;;;;;;;4.30;3.90;;;24.50;99.90;;;;;;4990513;28;20509;-71
2022/06/30 03:54:47;;;;;;;4.32;3.78;;;24.50;99.90;;;;;;4975571;28;20019;-71
2022/06/30 03:57:13;;;;;;;4.40;4.00;;;24.50;99.90;;;;;;4975409;28;20019;-71
2022/06/30 03:59:39;;;;;;;3.85;3.55;;;24.50;99.90;;;;;;4974616;28;20031;-71
2022/06/30 04:02:06;;;;;;;3.40;3.20;;;24.50;99.90;;;;;;4990493;28;20461;-71
2022/06/30 04:04:32;;;;;;;2.63;2.38;;;24.60;99.90;;;;;;4975432;28;20485;-71
2022/06/30 04:06:58;;;;;;;3.60;3.30;;;24.60;99.90;;;;;;4975396;28;20054;-71
2022/06/30 04:09:24;;;;;;;3.08;2.83;;;24.60;99.90;;;;;;4975660;28;20019;-71
2022/06/30 04:11:50;;;;;;;2.50;2.30;;;24.70;99.90;;;;;;4989892;28;20043;-71
2022/06/30 04:14:15;;;;;;;3.00;2.45;;;24.70;99.90;;;;;;4973950;28;20037;-71
2022/06/30 04:16:41;;;;;;;2.70;2.50;;;24.70;99.90;;;;;;4975380;28;20026;-71
2022/06/30 04:19:06;;;;;;;3.20;2.90;;;24.80;99.90;;;;;;4975155;28;20019;-71
2022/06/30 04:21:32;;;;;;;2.80;2.60;;;24.80;99.90;;;;;;4975062;28;20033;-71
2022/06/30 04:23:58;;;;;;;2.97;2.70;;;24.90;99.90;;;;;;4974990;28;20077;-71
2022/06/30 04:26:23;;;;;;;3.28;2.83;;;24.90;99.90;;;;;;4990008;28;20025;-71
2022/06/30 04:28:49;;;;;;;2.83;2.63;;;24.90;99.90;;;;;;4975110;28;20436;-71
2022/06/30 04:33:59;;;;;;;3.85;3.55;;;24.90;99.90;;;;;;4974949;28;20038;-71
2022/06/30 04:36:24;;;;;;;4.43;4.03;;;24.90;99.90;;;;;;4989239;28;20473;-71
2022/06/30 04:38:50;;;;;;;3.92;3.63;;;24.90;99.90;;;;;;4974898;28;20097;-71
2022/06/30 04:41:25;;;;;;;3.78;3.47;;;24.90;99.90;;;;;;4974715;28;20069;-71
2022/06/30 04:43:55;;;;;;;5.28;3.00;;;25.00;99.90;;;;;;4974699;28;20093;-71
2022/06/30 04:46:21;;;;;;;4.00;3.60;;;25.00;99.90;;;;;;4973470;28;20018;-71
2022/06/30 04:48:47;;;;;;;4.70;4.20;;;25.00;99.90;;;;;;4974818;28;20014;-71
2022/06/30 04:51:13;;;;;;;4.80;4.40;;;25.00;99.90;;;;;;4974657;28;20030;-71
2022/06/30 04:53:40;;;;;;;4.30;3.90;;;25.00;99.90;;;;;;4974735;28;20031;-71
2022/06/30 04:56:06;;;;;;;5.35;4.45;;;25.00;99.90;;;;;;4974529;28;20023;-71
2022/06/30 04:58:32;;;;;;;5.90;3.78;;;24.90;99.90;;;;;;4974487;28;20027;-71
2022/06/30 05:00:58;;;;;;;3.97;3.63;;;25.00;99.90;;;;;;4973309;28;20118;-71
2022/06/30 05:03:24;;;;;;;3.72;3.33;;;25.00;99.90;;;;;;4989445;28;20041;-71
2022/06/30 05:05:49;;;;;;;3.00;2.80;;;25.10;99.90;;;;;;4972421;28;20055;-75
2022/06/30 05:08:15;;;;;;;4.07;3.67;;;25.20;99.90;;;;;;4972279;28;20470;-66
2022/06/30 05:10:41;;;;;;;3.70;3.40;;;25.30;99.90;;;;;;4971706;28;20030;-66
2022/06/30 05:13:07;;;;;;;3.20;3.00;;;25.40;99.90;;;;;;4972127;28;20050;-66
2022/06/30 05:15:34;;;;;;;3.25;2.90;;;25.60;99.90;;;;;;4972130;28;20030;-66
2022/06/30 05:18:00;;;;;;;3.22;3.00;;;25.70;99.90;;;;;;4972252;28;20070;-66
2022/06/30 05:20:25;;;;;;;3.35;3.05;;;25.80;99.90;;;;;;4972201;28;20114;-67
2022/06/30 05:22:51;;;;;;;2.97;2.70;;;25.90;99.90;;;;;;4973694;28;20422;-66
2022/06/30 05:28:01;;;;;;;6.50;4.82;;;26.10;99.90;;;;;;4971233;28;20033;-69
2022/06/30 05:30:27;;;;;;;4.00;3.70;;;26.10;99.90;;;;;;4970396;28;20433;-66
2022/06/30 05:32:53;;;;;;;5.93;5.28;;;26.20;99.90;;;;;;4970449;28;20051;-67
2022/06/30 05:35:19;;;;;;;5.15;4.30;;;26.20;99.90;;;;;;4970325;28;20019;-66
2022/06/30 05:37:45;;;;;;;4.65;4.28;;;26.20;99.90;;;;;;4971048;28;20070;-66
2022/06/30 05:40:11;;;;;;;4.65;4.20;;;26.20;99.90;;;;;;4972169;28;20023;-66
2022/06/30 05:42:37;;;;;;;4.18;3.67;;;26.40;99.90;;;;;;4973418;28;20434;-66
2022/06/30 05:45:03;;;;;;;4.25;3.10;;;26.50;99.90;;;;;;4974202;28;20035;-67
2022/06/30 05:47:29;;;;;;;4.20;3.67;;;26.60;99.90;;;;;;4974031;28;20458;-67
2022/06/30 05:49:54;;;;;;;3.97;3.63;;;26.70;99.90;;;;;;4977913;28;20030;-67
2022/06/30 05:52:20;;;;;;;3.53;3.30;;;26.80;99.90;;;;;;4977541;28;20081;-67
2022/06/30 05:54:46;;;;;;;3.60;3.30;;;27.00;99.90;;;;;;4977927;28;20477;-67
2022/06/30 05:57:11;;;;;;;4.57;3.50;;;27.10;99.90;;;;;;4977794;28;20019;-67
2022/06/30 05:59:37;;;;;;;4.85;3.97;;;27.20;99.90;;;;;;4977557;28;20199;-67
2022/06/30 06:02:03;;;;;;;3.80;3.50;;;27.20;99.90;;;;;;4975653;28;20023;-67
2022/06/30 06:04:29;;;;;;;4.00;3.70;;;27.30;99.90;;;;;;4975603;28;20045;-66
2022/06/30 06:06:55;;;;;;;3.90;3.60;;;27.40;99.90;;;;;;4975553;28;20023;-66
2022/06/30 06:09:21;;;;;;;3.88;3.47;;;27.50;99.90;;;;;;4975498;28;20026;-66
2022/06/30 06:11:46;;;;;;;4.18;3.40;;;27.60;99.90;;;;;;4975428;28;20113;-67
2022/06/30 06:14:13;;;;;;;5.50;4.28;;;27.70;99.90;;;;;;4975579;28;20079;-66
2022/06/30 06:16:38;;;;;;;6.07;5.00;;;27.80;99.90;;;;;;4976916;28;20030;-67
2022/06/30 06:19:04;;;;;;;6.75;5.20;;;27.80;99.80;;;;;;4977688;28;20027;-67
2022/06/30 06:21:32;;;;;;;6.75;5.20;;;27.80;99.80;;;;;;4977128;28;20038;-66
2022/06/30 06:23:57;;;;;;;5.82;5.28;;;27.80;99.80;;;;;;4977081;28;20118;-66
2022/06/30 06:26:23;;;;;;;6.00;5.35;;;27.90;99.90;;;;;;4977350;28;20102;-66
2022/06/30 06:29:08;;;;;;;5.88;5.07;;;28.10;99.70;;;;;;4977250;28;20473;-66
2022/06/30 06:31:36;;;;;;;5.47;4.85;;;28.20;99.70;;;;;;4975716;28;20521;-66
2022/06/30 06:34:03;;;;;;;7.50;6.20;;;28.30;99.20;;;;;;4977329;28;20027;-66
2022/06/30 06:36:29;;;;;;;6.78;5.75;;;28.50;98.90;;;;;;4975943;28;20054;-66
2022/06/30 06:38:55;;;;;;;5.68;5.18;;;28.60;98.30;;;;;;4976363;28;20026;-66
2022/06/30 06:41:21;;;;;;;5.25;4.80;;;28.70;98.40;;;;;;4974760;28;20397;-66
2022/06/30 06:43:48;;;;;;;6.50;5.90;;;28.90;98.20;;;;;;4973973;28;20102;-66
2022/06/30 06:46:14;;;;;;;6.18;4.93;;;28.90;97.00;;;;;;4989732;28;20461;-66
2022/06/30 06:48:40;;;;;;;6.53;4.95;;;29.10;96.10;;;;;;4994315;28;20018;-66
2022/06/30 06:51:06;;;;;;;5.10;4.68;;;29.20;95.90;;;;;;4994092;28;20025;-66
2022/06/30 06:53:32;;;;;;;7.65;5.68;;;29.30;95.50;;;;;;4986047;28;20062;-67
2022/06/30 06:55:57;;;;;;;6.00;5.07;;;29.40;94.70;;;;;;4992470;28;20030;-67
2022/06/30 06:58:23;;;;;;;5.72;4.32;;;29.50;92.40;;;;;;4994668;28;20507;-66
2022/06/30 07:00:50;;;;;;;5.13;4.32;;;29.70;94.10;;;;;;4995937;28;20035;-66
2022/06/30 07:03:16;;;;;;;4.70;4.13;;;29.80;94.20;;;;;;4996049;28;20018;-67
2022/06/30 07:05:41;;;;;;;6.85;5.40;;;29.90;94.10;;;;;;4995340;28;20030;-65
2022/06/30 07:08:07;;;;;;;7.25;5.00;;;30.00;93.40;;;;;;4994434;28;20026;-66
2022/06/30 07:10:33;;;;;;;5.63;5.03;;;30.20;93.50;;;;;;4995088;28;20362;-66
2022/06/30 07:12:59;;;;;;;6.35;4.78;;;30.10;93.10;;;;;;4995662;28;20134;-67
2022/06/30 07:15:24;;;;;;;10.55;5.20;;;30.20;91.60;;;;;;4984339;28;20027;-66
2022/06/30 07:17:50;;;;;;;7.65;5.20;;;30.30;91.30;;;;;;4994436;28;20034;-66
2022/06/30 07:20:16;;;;;;;5.70;5.00;;;30.40;91.30;;;;;;4984646;28;20076;-67
2022/06/30 07:22:42;;;;;;;6.25;4.97;;;30.50;91.00;;;;;;4991282;28;20405;-66
2022/06/30 07:25:08;;;;;;;6.95;5.07;;;30.60;90.90;;;;;;4995269;28;20073;-66
2022/06/30 07:27:34;;;;;;;8.18;4.75;;;30.60;90.30;;;;;;4987679;28;20029;-66
2022/06/30 07:30:00;;;;;;;5.93;4.97;;;30.80;91.10;;;;;;4993948;28;20101;-66
2022/06/30 07:32:26;;;;;;;11.50;5.57;;;30.90;89.90;;;;;;4995308;28;20026;-66
2022/06/30 07:34:52;;;;;;;6.03;4.78;;;30.90;91.00;;;;;;4994787;28;20033;-66
2022/06/30 07:37:17;;;;;;;6.28;4.40;;;31.20;89.20;;;;;;4995435;28;20022;-66
2022/06/30 07:39:43;;;;;;;5.70;4.28;;;31.40;87.30;;;;;;4993972;28;20050;-67
2022/06/30 07:42:09;;;;;;;6.50;4.43;;;31.50;86.90;;;;;;4994675;28;20384;-66
2022/06/30 07:44:34;;;;;;;6.22;4.28;;;31.60;86.20;;;;;;4995221;28;20488;-66
2022/06/30 07:47:00;;;;;;;8.73;5.00;;;31.80;82.70;;;;;;4993518;28;20472;-66
2022/06/30 07:49:26;;;;;;;5.82;4.47;;;32.40;80.20;;;;;;4992651;28;20496;-66
2022/06/30 07:51:55;;;;;;;5.47;3.88;;;34.00;79.40;;;;;;4989184;28;20492;-66
2022/06/30 07:54:21;;;;;;;7.60;3.92;;;36.00;69.10;;;;;;4990825;28;20077;-66
2022/06/30 07:56:46;;;;;;;6.90;4.35;;;37.60;63.70;;;;;;4992272;28;20443;-66
2022/06/30 07:59:13;;;;;;;8.27;4.03;;;38.30;58.90;;;;;;4992301;28;20419;-66
2022/06/30 08:01:39;;;;;;;6.70;3.85;;;39.30;54.90;;;;;;4993034;28;20808;-66
2022/06/30 08:04:04;;;;;;;8.80;4.25;;;40.20;53.70;;;;;;4994309;28;20102;-67
2022/06/30 08:06:30;;;;;;;10.77;4.55;;;40.90;52.00;;;;;;4994343;28;20034;-67
2022/06/30 08:08:57;;;;;;;5.60;4.10;;;41.20;47.80;;;;;;4975044;28;20058;-66
2022/06/30 08:11:23;;;;;;;7.80;3.95;;;41.30;47.90;;;;;;4974501;28;20019;-67
2022/06/30 08:13:49;;;;;;;5.40;3.20;;;41.80;48.40;;;;;;4974981;28;20038;-67
2022/06/30 08:16:15;;;;;;;8.05;4.22;;;42.20;46.70;;;;;;4974633;28;20431;-68
2022/06/30 08:18:42;;;;;;;12.52;5.00;;;42.60;46.70;;;;;;4993753;28;20034;-67
2022/06/30 08:21:09;;;;;;;7.40;3.88;;;42.30;45.40;;;;;;4994028;28;20023;-67
2022/06/30 08:23:36;;;;;;;6.97;3.63;;;42.10;44.30;;;;;;4994287;28;20061;-67
2022/06/30 08:26:02;;;;;;;5.70;3.30;;;42.10;44.10;;;;;;4994273;28;20362;-66
2022/06/30 08:28:28;;;;;;;5.57;3.30;;;42.50;43.40;;;;;;4993677;28;20112;-66
2022/06/30 08:30:54;;;;;;;6.55;2.70;;;42.90;41.70;;;;;;4994274;28;20037;-67
2022/06/30 08:33:20;;;;;;;7.05;3.00;;;43.30;41.50;;;;;;4992589;28;20027;-67
2022/06/30 08:35:46;;;;;;;6.38;2.92;;;43.20;41.70;;;;;;4994018;28;20030;-67
2022/06/30 08:38:11;;;;;;;4.07;2.70;;;43.50;39.90;;;;;;4993494;28;20057;-67
2022/06/30 08:43:26;;;;;;;7.80;2.85;;;44.40;39.60;;;;;;4994029;28;20034;-68
2022/06/30 08:45:54;;;;;;;5.60;2.58;;;44.10;37.00;;;;;;4992301;28;20029;-67
2022/06/30 08:48:20;;;;;;;3.75;2.33;;;43.70;37.30;;;;;;4993840;28;20025;-67
2022/06/30 08:50:48;;;;;;;3.65;2.10;;;43.30;37.70;;;;;;4994159;28;20389;-67
2022/06/30 08:53:16;;;;;;;3.45;1.98;;;43.50;38.20;;;;;;4993502;28;20054;-67
2022/06/30 08:55:42;;;;;;;7.65;2.08;;;43.70;38.30;;;;;;4990123;28;20029;-68
2022/06/30 08:58:09;;;;;;;4.18;2.38;;;43.90;40.50;;;;;;4993049;28;20034;-68
2022/06/30 09:00:36;;;;;;;2.92;1.77;;;44.20;38.50;;;;;;4992379;28;20030;-67
2022/06/30 09:03:06;;;;;;;3.25;1.90;;;44.40;37.60;;;;;;4992153;28;20027;-68
2022/06/30 09:05:32;;;;;;;7.45;2.58;;;44.70;37.30;;;;;;4993703;28;20038;-67
2022/06/30 09:07:58;;;;;;;5.40;2.50;;;44.40;38.10;;;;;;4993824;28;20037;-68
2022/06/30 09:10:25;;;;;;;6.35;2.25;;;43.90;39.60;;;;;;4993936;28;20029;-65
2022/06/30 09:12:58;;;;;;;6.47;2.38;;;43.60;36.80;;;;;;4993343;28;20122;-68
2022/06/30 09:15:27;;;;;;;4.13;1.73;;;43.20;37.20;;;;;;4993483;28;20034;-67
2022/06/30 09:17:53;;;;;;;2.55;2.00;;;43.20;39.40;;;;;;4993838;28;20014;-68
2022/06/30 09:20:30;;;;;;;4.53;2.38;;;43.30;39.00;;;;;;4991747;28;20453;-67
2022/06/30 09:22:56;;;;;;;4.25;2.58;;;43.30;37.60;;;;;;4994027;28;20129;-67
2022/06/30 09:25:30;;;;;;;4.22;2.28;;;43.40;38.80;;;;;;4978788;28;20117;-67
2022/06/30 09:27:56;;;;;;;5.70;2.13;;;43.50;37.70;;;;;;4978249;28;20030;-67
2022/06/30 09:30:24;;;;;;;3.78;2.22;;;43.70;38.80;;;;;;4978148;28;20022;-67
2022/06/30 09:32:54;;;;;;;3.75;2.05;;;43.80;37.80;;;;;;4978542;28;20035;-67
2022/06/30 09:35:28;;;;;;;6.20;2.60;;;43.70;37.90;;;;;;4978153;28;20031;-68
2022/06/30 09:38:12;;;;;;;5.03;2.42;;;43.70;37.60;;;;;;4977662;28;20019;-67
2022/06/30 09:41:00;;;;;;;6.25;2.20;;;43.80;36.60;;;;;;4978253;28;20117;-66
2022/06/30 09:43:33;;;;;;;5.05;2.25;;;43.70;37.90;;;;;;4978029;28;20023;-67
2022/06/30 09:45:59;;;;;;;7.05;2.78;;;43.70;36.70;;;;;;4977015;28;20029;-68
2022/06/30 09:48:31;;;;;;;5.43;2.70;;;43.40;37.90;;;;;;4978069;28;20031;-67
2022/06/30 09:51:02;;;;;;;4.47;2.63;;;43.30;36.80;;;;;;4977958;28;20015;-67
2022/06/30 09:53:28;;;;;;;3.05;2.20;;;43.40;37.70;;;;;;4978099;28;20043;-66
2022/06/30 09:55:53;;;;;;;3.88;2.22;;;43.50;37.30;;;;;;4977841;28;20022;-66
2022/06/30 09:58:31;;;;;;;3.53;2.42;;;43.80;38.20;;;;;;4977761;28;20023;-67
2022/06/30 10:00:59;;;;;;;4.60;2.30;;;43.60;37.00;;;;;;4976739;28;20496;-67
2022/06/30 10:03:25;;;;;;;4.43;2.40;;;43.30;36.70;;;;;;4977430;28;20043;-67
2022/06/30 10:06:09;;;;;;;2.80;2.22;;;43.10;37.50;;;;;;4978026;28;20027;-67
2022/06/30 10:08:36;;;;;;;6.25;2.67;;;43.20;37.70;;;;;;4996314;28;20022;-68
2022/06/30 10:11:02;;;;;;;5.45;2.92;;;43.20;35.80;;;;;;4996763;28;20029;-67
2022/06/30 10:13:29;;;;;;;6.60;2.53;;;42.70;37.00;;;;;;4996390;28;20051;-67
2022/06/30 10:15:56;;;;;;;3.70;2.67;;;42.60;37.20;;;;;;4995524;28;20105;-68
2022/06/30 10:18:27;;;;;;;6.00;2.55;;;42.60;36.10;;;;;;4996021;28;20034;-67
2022/06/30 10:20:54;;;;;;;5.82;2.42;;;42.60;37.50;;;;;;4984640;28;20026;-68
2022/06/30 10:23:21;;;;;;;6.43;2.55;;;43.00;37.80;;;;;;4976120;28;20047;-67
2022/06/30 10:25:51;;;;;;;6.25;2.88;;;43.20;35.40;;;;;;4975312;28;20098;-67
2022/06/30 10:28:22;;;;;;;5.13;2.92;;;43.00;36.20;;;;;;4975172;28;20039;-68
2022/06/30 10:31:03;;;;;;;4.55;2.53;;;42.80;36.30;;;;;;4975362;28;20023;-67
2022/06/30 10:33:54;;;;;;;4.82;2.80;;;42.80;36.30;;;;;;4974459;28;20027;-66
2022/06/30 10:36:31;;;;;;;3.55;2.50;;;43.10;36.40;;;;;;4975095;28;20425;-67
2022/06/30 10:39:21;;;;;;;5.22;2.88;;;43.10;36.50;;;;;;4975458;28;20105;-67
2022/06/30 10:41:48;;;;;;;4.50;3.08;;;43.10;35.30;;;;;;4975082;28;20023;-68
2022/06/30 10:44:19;;;;;;;5.63;2.60;;;42.80;39.00;;;;;;4974799;28;20049;-67
2022/06/30 10:46:44;;;;;;;4.38;2.50;;;42.80;35.50;;;;;;4975178;28;20533;-66
2022/06/30 10:49:14;;;;;;;4.63;2.88;;;43.00;36.20;;;;;;4975748;28;20105;-65
2022/06/30 10:51:41;;;;;;;5.97;2.97;;;43.00;35.30;;;;;;4976735;28;20107;-67
2022/06/30 10:54:08;;;;;;;4.22;2.53;;;42.90;34.80;;;;;;4976730;28;20031;-67
2022/06/30 10:56:49;;;;;;;4.38;2.58;;;43.00;36.10;;;;;;4976818;28;20027;-67
2022/06/30 10:59:16;;;;;;;3.65;2.50;;;43.00;34.90;;;;;;4976628;28;20335;-66
2022/06/30 11:02:07;;;;;;;3.00;2.67;;;43.30;36.20;;;;;;4976361;28;20037;-67
2022/06/30 11:04:40;;;;;;;3.63;2.60;;;43.30;35.50;;;;;;4976466;28;20113;-66
2022/06/30 11:07:10;;;;;;;5.72;2.83;;;43.40;35.70;;;;;;4976552;28;20486;-67
2022/06/30 11:09:44;;;;;;;3.13;2.05;;;43.60;34.40;;;;;;4976408;28;20027;-67
2022/06/30 11:12:18;;;;;;;4.15;2.50;;;43.80;35.20;;;;;;4976111;28;20113;-66
2022/06/30 11:14:52;;;;;;;5.18;2.88;;;43.80;34.00;;;;;;4976108;28;20508;-66
2022/06/30 11:17:39;;;;;;;4.78;2.60;;;43.60;35.40;;;;;;4976101;28;20055;-68
2022/06/30 11:20:12;;;;;;;5.00;2.78;;;43.30;35.10;;;;;;4976362;28;20026;-67
2022/06/30 11:22:38;;;;;;;7.18;3.38;;;43.10;35.00;;;;;;4976107;28;20026;-68
2022/06/30 11:25:08;;;;;;;5.05;2.78;;;43.10;34.60;;;;;;4976316;28;20058;-68
2022/06/30 11:27:36;;;;;;;3.25;2.72;;;42.90;35.00;;;;;;4976019;28;20114;-66
2022/06/30 11:30:08;;;;;;;7.30;2.63;;;43.00;34.40;;;;;;4976664;28;20030;-67
2022/06/30 11:32:34;;;;;;;6.10;2.42;;;43.30;33.50;;;;;;4983519;28;20427;-68
2022/06/30 11:35:01;;;;;;;8.77;2.90;;;43.40;33.50;;;;;;4989303;28;20032;-68
2022/06/30 11:37:30;;;;;;;5.05;2.40;;;43.30;35.40;;;;;;4993914;28;20469;-67
2022/06/30 11:40:05;;;;;;;3.65;2.40;;;43.50;34.20;;;;;;4994436;28;20118;-67
2022/06/30 11:42:31;;;;;;;7.63;3.28;;;44.00;34.80;;;;;;4995077;28;20053;-67
2022/06/30 11:44:57;;;;;;;3.88;2.33;;;44.30;34.00;;;;;;4993431;28;20057;-67
2022/06/30 11:47:23;;;;;;;7.20;2.90;;;44.30;34.10;;;;;;4990828;28;20504;-67
2022/06/30 11:49:57;;;;;;;3.08;2.40;;;43.90;34.10;;;;;;4987935;28;20026;-66
2022/06/30 11:52:23;;;;;;;4.32;2.55;;;43.40;33.90;;;;;;4995266;28;20037;-67
2022/06/30 11:54:58;;;;;;;5.80;2.88;;;43.60;34.00;;;;;;4994872;28;20026;-67
2022/06/30 11:57:28;;;;;;;8.20;3.08;;;43.40;33.90;;;;;;4994994;28;20058;-68
2022/06/30 12:00:02;;;;;;;4.80;3.00;;;43.10;34.70;;;;;;4995169;28;20022;-68
2022/06/30 12:02:28;;;;;;;6.40;3.00;;;43.20;34.30;;;;;;4995246;28;20031;-71
2022/06/30 12:04:59;;;;;;;5.85;2.90;;;42.90;35.30;;;;;;4994736;28;20030;-68
2022/06/30 12:07:25;;;;;;;4.10;3.10;;;42.60;35.50;;;;;;4993586;28;20022;-67
2022/06/30 12:09:52;;;;;;;4.43;2.30;;;42.50;35.40;;;;;;4994546;28;20025;-68
2022/06/30 12:12:19;;;;;;;3.83;2.75;;;42.50;35.00;;;;;;4994477;28;20096;-68
2022/06/30 12:14:46;;;;;;;4.75;2.50;;;42.60;38.20;;;;;;4994924;28;20036;-77
2022/06/30 12:17:13;;;;;;;4.50;3.17;;;42.70;36.80;;;;;;4994676;28;20364;-72
2022/06/30 12:19:43;;;;;;;5.55;3.30;;;42.90;35.10;;;;;;4994576;28;20022;-72
2022/06/30 12:22:09;;;;;;;4.28;2.70;;;42.50;35.30;;;;;;4994597;28;20025;-72
2022/06/30 12:24:38;;;;;;;6.50;3.40;;;42.50;35.40;;;;;;4994131;28;20041;-73
2022/06/30 12:27:05;;;;;;;6.13;3.30;;;42.50;35.40;;;;;;4992835;28;20446;-72
2022/06/30 12:29:31;;;;;;;7.70;3.42;;;42.30;35.80;;;;;;4992584;28;20022;-73
2022/06/30 12:32:04;;;;;;;6.55;3.22;;;42.30;35.20;;;;;;4993546;28;20019;-72
2022/06/30 12:34:31;;;;;;;3.92;2.83;;;42.10;35.90;;;;;;4994245;28;20030;-72
2022/06/30 12:37:00;;;;;;;6.30;3.10;;;42.10;36.40;;;;;;4992512;28;20395;-72
2022/06/30 12:39:26;;;;;;;5.43;2.97;;;42.30;35.50;;;;;;4993513;28;20019;-72
2022/06/30 12:42:03;;;;;;;7.22;3.00;;;42.30;35.00;;;;;;4993487;28;20093;-72
2022/06/30 12:44:35;;;;;;;3.42;2.70;;;42.50;35.90;;;;;;4994071;28;20038;-72
2022/06/30 12:47:08;;;;;;;4.38;2.90;;;42.80;35.20;;;;;;4994121;28;20027;-72
2022/06/30 12:49:35;;;;;;;6.07;3.13;;;43.00;36.30;;;;;;4994200;28;20018;-72
2022/06/30 12:52:11;;;;;;;4.43;3.05;;;42.90;35.60;;;;;;4992891;28;20389;-72
2022/06/30 12:54:36;;;;;;;4.47;2.70;;;42.70;35.90;;;;;;4991924;28;20030;-72
2022/06/30 12:57:05;;;;;;;3.42;2.60;;;42.70;36.40;;;;;;4991737;28;20026;-72
2022/06/30 12:59:30;;;;;;;4.75;2.90;;;42.70;37.80;;;;;;4992067;28;20025;-73
2022/06/30 13:02:00;;;;;;;4.20;2.67;;;42.70;35.60;;;;;;4992080;28;20022;-73